Pine Cliff, Utah
Current Conditions -  °F | °C
As of 2:53 AM on Wednesday 22 Oct 2014 (Local Time) from KEVW Reporting Station
Clear Clear  
Wind Chill: 36°   Ceiling: Unl
Heat Index: 36°   Visibility: 10mi
Dew Point: 24°   Wind: 3mph
Humidity: 62%   Direction: 190°S
Pressure: 30.15"   Gusts: NA
Location:  40.9431°N, 111.212°W
Report Text: KEVW 220853Z AUTO 19003KT 10SM CLR 02/M04 A3015 RMK AO2 SLP163 T00221044 53003 TSNO
Loading
Personal Weather Stations






























Interactive Weather Map
Tropical Storm Tracking
New forecast layout! Learn more

10-Day Weather Forecast

Advertisements
Track Severe Weather on mobile